createdAt,value
2023-03-26T00:01:39.023Z,100368.88
2023-03-26T00:04:07.469Z,100364.47
2023-03-26T00:06:37.602Z,100375.88
2023-03-26T00:09:06.337Z,100369.47
2023-03-26T00:11:35.165Z,100369.63
2023-03-26T00:14:02.770Z,100362.53
2023-03-26T00:16:31.317Z,100357.41
2023-03-26T00:19:00.010Z,100361.47
2023-03-26T00:21:28.993Z,100356.41
2023-03-26T00:23:58.573Z,100351.97
2023-03-26T00:26:25.532Z,100350.56
2023-03-26T00:28:54.674Z,100349.97
2023-03-26T00:31:21.748Z,100344.22
2023-03-26T00:33:54.308Z,100346.44
2023-03-26T00:36:22.195Z,100337.28
2023-03-26T00:38:49.107Z,100326.72
2023-03-26T00:41:22.792Z,100328.81
2023-03-26T00:43:51.505Z,100315.59
2023-03-26T00:46:19.977Z,100310.56
2023-03-26T00:48:47.252Z,100303.78
2023-03-26T00:51:16.014Z,100296.56
2023-03-26T00:53:44.108Z,100290.66
2023-03-26T00:56:11.879Z,100292.94
2023-03-26T00:58:39.006Z,100286.69
2023-03-26T01:01:08.055Z,100282.28
2023-03-26T01:04:07.321Z,100262.94
2023-03-26T01:06:42.324Z,100256.06
2023-03-26T01:09:14.816Z,100250.03
2023-03-26T01:11:42.496Z,100250.13
2023-03-26T01:14:13.325Z,100249.94
2023-03-26T01:16:45.239Z,100248.91
2023-03-26T01:19:20.770Z,100246.78
2023-03-26T01:21:49.377Z,100240.22
2023-03-26T01:24:18.129Z,100236.84
2023-03-26T01:27:05.002Z,100232.41
2023-03-26T01:29:39.440Z,100231.69
2023-03-26T01:32:22.217Z,100219.66
2023-03-26T01:35:01.177Z,100232.72
2023-03-26T01:37:37.445Z,100220.00
2023-03-26T01:40:13.257Z,100214.03
2023-03-26T01:42:43.950Z,100214.72
2023-03-26T01:45:16.086Z,100208.22
2023-03-26T01:47:44.661Z,100207.13
2023-03-26T01:50:12.461Z,100199.69
2023-03-26T01:52:40.444Z,100188.03
2023-03-26T01:55:11.953Z,100187.16
2023-03-26T01:57:55.037Z,100180.22
2023-03-26T02:00:28.982Z,100172.84
2023-03-26T02:03:09.043Z,100174.00
2023-03-26T02:05:42.730Z,100158.03
2023-03-26T02:08:16.914Z,100145.16
2023-03-26T02:10:48.912Z,100148.47
2023-03-26T02:13:16.898Z,100141.16
2023-03-26T02:15:56.080Z,100130.69
2023-03-26T02:18:24.430Z,100136.38
2023-03-26T02:20:53.210Z,100127.75
2023-03-26T02:23:21.307Z,100118.44
2023-03-26T02:25:50.209Z,100115.69
2023-03-26T02:28:17.617Z,100117.44
2023-03-26T02:30:46.120Z,100104.06
2023-03-26T02:33:15.615Z,100101.91
2023-03-26T02:35:46.125Z,100102.84
2023-03-26T02:38:14.820Z,100092.38
2023-03-26T02:40:42.204Z,100085.00
2023-03-26T02:43:11.203Z,100074.38
2023-03-26T02:45:38.465Z,100065.00
2023-03-26T02:48:07.292Z,100055.00
2023-03-26T02:50:36.957Z,100054.41
2023-03-26T02:53:04.276Z,100049.00
2023-03-26T02:55:31.792Z,100039.03
2023-03-26T02:57:59.451Z,100030.28
2023-03-26T03:00:29.169Z,100024.81
2023-03-26T03:02:58.146Z,100029.47
2023-03-26T03:05:31.568Z,100030.94
2023-03-26T03:07:59.855Z,100015.31
2023-03-26T03:10:28.894Z,99996.75
2023-03-26T03:12:56.244Z,99994.81
2023-03-26T03:15:23.460Z,99992.34
2023-03-26T03:17:52.430Z,99986.16
2023-03-26T03:20:22.273Z,99975.28
2023-03-26T03:22:50.202Z,99967.63
2023-03-26T03:25:17.640Z,99956.13
2023-03-26T03:27:45.391Z,99956.09
2023-03-26T03:30:15.468Z,99950.31
2023-03-26T03:32:43.063Z,99943.31
2023-03-26T03:35:12.643Z,99937.72
2023-03-26T03:37:40.365Z,99931.47
2023-03-26T03:40:11.304Z,99924.63
2023-03-26T03:42:39.536Z,99920.59
2023-03-26T03:45:08.373Z,99916.94
2023-03-26T03:47:36.545Z,99914.72
2023-03-26T03:50:04.743Z,99910.94
2023-03-26T03:52:34.346Z,99909.28
2023-03-26T03:55:01.555Z,99908.13
2023-03-26T03:57:32.197Z,99898.72
2023-03-26T03:59:59.649Z,99898.47
2023-03-26T04:02:30.598Z,99890.28
2023-03-26T04:04:58.353Z,99888.81
2023-03-26T04:07:26.790Z,99881.28
2023-03-26T04:09:56.458Z,99876.16
2023-03-26T04:12:24.169Z,99876.41
2023-03-26T04:14:51.390Z,99870.47
2023-03-26T04:17:21.976Z,99866.03
2023-03-26T04:19:50.446Z,99864.63
2023-03-26T04:22:18.620Z,99853.06
2023-03-26T04:24:46.196Z,99855.47
2023-03-26T04:27:18.058Z,99844.16
2023-03-26T04:29:49.871Z,99836.78
2023-03-26T04:32:22.765Z,99833.47
2023-03-26T04:34:50.483Z,99834.41
2023-03-26T04:37:26.740Z,99827.78
2023-03-26T04:39:55.378Z,99816.84
2023-03-26T04:42:24.220Z,99811.34
2023-03-26T04:44:52.869Z,99807.25
2023-03-26T04:47:21.440Z,99808.56
2023-03-26T04:49:48.965Z,99803.66
2023-03-26T04:52:16.478Z,99799.34
2023-03-26T04:54:45.183Z,99794.97
2023-03-26T04:57:18.103Z,99785.69
2023-03-26T06:47:19.769Z,99694.28
2023-03-26T06:49:48.187Z,99693.75
2023-03-26T06:52:16.348Z,99691.09
2023-03-26T06:54:46.417Z,99688.53
2023-03-26T06:57:16.153Z,99691.81
2023-03-26T06:59:50.179Z,99690.06
2023-03-26T07:02:17.735Z,99698.59
2023-03-26T07:04:45.769Z,99687.94
2023-03-26T07:07:14.794Z,99688.91
2023-03-26T07:09:42.940Z,99696.84
2023-03-26T07:12:16.488Z,99687.28
2023-03-26T07:14:48.204Z,99685.47
2023-03-26T07:17:19.455Z,99687.72
2023-03-26T07:19:47.749Z,99686.75
2023-03-26T07:22:26.514Z,99686.06
2023-03-26T07:24:59.243Z,99685.97
2023-03-26T07:27:49.425Z,99684.19
2023-03-26T07:30:32.262Z,99679.72
2023-03-26T07:33:07.112Z,99671.84
2023-03-26T07:35:47.493Z,99685.03
2023-03-26T07:38:27.527Z,99679.91
2023-03-26T07:41:09.018Z,99682.22
2023-03-26T07:50:27.982Z,99684.03
2023-03-26T07:52:55.534Z,99675.56
2023-03-26T07:55:23.127Z,99683.69
2023-03-26T07:58:01.350Z,99677.13
2023-03-26T08:00:35.039Z,99673.84
2023-03-26T08:03:17.443Z,99682.53
2023-03-26T08:05:53.335Z,99674.72
2023-03-26T08:08:30.813Z,99669.81
2023-03-26T08:11:12.119Z,99678.66
2023-03-26T08:13:56.241Z,99681.22
2023-03-26T08:16:32.081Z,99673.63
2023-03-26T08:19:08.016Z,99674.50
2023-03-26T08:21:40.628Z,99674.84
2023-03-26T08:24:18.416Z,99681.59
2023-03-26T08:26:52.773Z,99681.53
2023-03-26T08:29:29.283Z,99678.41
2023-03-26T08:31:57.583Z,99675.44
2023-03-26T08:34:24.724Z,99684.66
2023-03-26T08:36:53.625Z,99678.75
2023-03-26T08:39:22.429Z,99680.44
2023-03-26T08:42:34.442Z,99688.44
2023-03-26T08:45:38.924Z,99692.94
2023-03-26T08:48:39.670Z,99696.28
2023-03-26T09:53:19.657Z,99760.47
2023-03-26T09:55:57.469Z,99753.28
2023-03-26T09:58:51.899Z,99758.13
2023-03-26T10:01:29.401Z,99760.44
2023-03-26T10:04:10.608Z,99780.25
2023-03-26T10:06:50.333Z,99774.47
2023-03-26T10:09:34.702Z,99771.09
2023-03-26T10:12:18.863Z,99783.97
2023-03-26T10:14:51.105Z,99795.47
2023-03-26T10:17:35.923Z,99798.81
2023-03-26T10:20:26.524Z,99791.53
2023-03-26T10:23:05.093Z,99799.75
2023-03-26T10:25:54.402Z,99806.22
2023-03-26T10:28:39.729Z,99809.97
2023-03-26T10:31:42.880Z,99802.56
2023-03-26T10:34:29.662Z,99818.22
2023-03-26T10:37:06.905Z,99815.91
2023-03-26T10:39:59.555Z,99825.25
2023-03-26T10:42:50.680Z,99825.09
2023-03-26T10:45:41.172Z,99830.53
2023-03-26T10:48:27.903Z,99843.38
2023-03-26T10:51:20.457Z,99843.56
2023-03-26T10:53:51.145Z,99841.72
2023-03-26T10:56:23.490Z,99849.50
2023-03-26T10:58:57.287Z,99855.84
2023-03-26T11:01:42.065Z,99861.31
2023-03-26T11:04:24.461Z,99866.00
2023-03-26T11:07:01.805Z,99871.41
2023-03-26T11:09:40.951Z,99865.31
2023-03-26T11:12:27.168Z,99873.41
2023-03-26T11:15:10.706Z,99882.72
2023-03-26T11:17:53.839Z,99885.91
2023-03-26T11:20:27.569Z,99899.25
2023-03-26T11:23:08.156Z,99892.59
2023-03-26T11:25:46.251Z,99900.00
2023-03-26T11:28:26.880Z,99910.09
2023-03-26T11:31:03.157Z,99907.72
2023-03-26T11:33:35.193Z,99919.34
2023-03-26T11:36:06.111Z,99922.72
2023-03-26T11:38:51.189Z,99919.31
2023-03-26T11:41:23.292Z,99922.03
2023-03-26T11:43:55.630Z,99923.53
2023-03-26T11:46:33.628Z,99925.13
2023-03-26T11:49:03.542Z,99932.44
2023-03-26T11:51:39.752Z,99942.69
2023-03-26T11:54:24.363Z,99948.44
2023-03-26T11:57:05.293Z,99955.81
2023-03-26T12:00:08.150Z,99962.78
2023-03-26T12:02:41.250Z,99959.78
2023-03-26T12:05:15.608Z,99958.41
2023-03-26T12:07:47.052Z,99958.19
2023-03-26T12:18:55.390Z,99977.94
2023-03-26T12:24:26.021Z,99985.31
2023-03-26T12:26:58.295Z,100001.31
2023-03-26T12:29:25.486Z,99997.09
2023-03-26T12:31:56.242Z,99995.66
2023-03-26T12:34:31.783Z,100002.88
2023-03-26T12:37:01.902Z,100012.72
2023-03-26T12:40:09.885Z,100013.31
2023-03-26T12:44:48.102Z,100022.91
2023-03-26T12:45:15.227Z,100018.84
2023-03-26T12:47:58.716Z,100032.38
2023-03-26T12:50:38.169Z,100023.84
2023-03-26T12:53:33.565Z,100039.03
2023-03-26T12:56:06.967Z,100036.47
2023-03-26T12:59:02.631Z,100041.38
2023-03-26T13:01:41.245Z,100036.34
2023-03-26T13:04:34.249Z,100038.97
2023-03-26T13:07:17.120Z,100034.47
2023-03-26T13:09:56.731Z,100043.59
2023-03-26T13:12:41.573Z,100049.25
2023-03-26T13:15:31.217Z,100055.03
2023-03-26T13:18:15.386Z,100060.22
2023-03-26T13:20:49.657Z,100060.66
2023-03-26T13:23:28.778Z,100062.41
2023-03-26T13:26:13.988Z,100069.44
2023-03-26T13:29:11.476Z,100070.97
2023-03-26T13:31:49.656Z,100075.72
2023-03-26T13:34:36.689Z,100079.13
2023-03-26T13:37:16.136Z,100073.72
2023-03-26T13:39:58.195Z,100081.75
2023-03-26T13:42:56.566Z,100082.06
2023-03-26T13:46:08.154Z,100084.94
2023-03-26T13:48:48.098Z,100090.66
2023-03-26T13:51:22.420Z,100094.22
2023-03-26T13:53:57.545Z,100087.63
2023-03-26T13:56:33.678Z,100095.53
2023-03-26T13:59:09.134Z,100110.56
2023-03-26T14:05:17.513Z,100106.03
2023-03-26T14:07:49.240Z,100117.63
2023-03-26T14:14:10.390Z,100129.25
2023-03-26T14:16:44.446Z,100130.75
2023-03-26T14:19:30.921Z,100137.31
2023-03-26T14:22:12.575Z,100131.59
2023-03-26T14:25:18.894Z,100150.94
2023-03-26T14:28:16.373Z,100144.59
2023-03-26T14:31:08.240Z,100148.28
2023-03-26T14:33:53.797Z,100154.50
2023-03-26T14:36:36.986Z,100164.75
2023-03-26T14:39:37.225Z,100168.00
2023-03-26T14:42:14.541Z,100181.16
2023-03-26T14:45:00.372Z,100181.25
2023-03-26T14:47:30.603Z,100186.94
2023-03-26T14:50:26.764Z,100183.75
2023-03-26T14:53:28.338Z,100202.03
2023-03-26T14:56:45.672Z,100205.47
2023-03-26T14:59:55.498Z,100221.53
2023-03-26T15:02:54.347Z,100231.66
2023-03-26T15:06:28.588Z,100222.47
2023-03-26T15:09:52.572Z,100241.84
2023-03-26T15:13:10.559Z,100258.34
2023-03-26T15:16:28.104Z,100253.72
2023-03-26T15:19:49.634Z,100252.13
2023-03-26T15:22:48.762Z,100271.69
2023-03-26T15:25:57.250Z,100278.09
2023-03-26T15:28:58.841Z,100288.94
2023-03-26T15:31:55.640Z,100297.03
2023-03-26T15:35:04.229Z,100312.56
2023-03-26T15:38:09.684Z,100305.81
2023-03-26T15:41:02.347Z,100321.31
2023-03-26T15:44:23.971Z,100328.44
2023-03-26T15:46:58.616Z,100333.31
2023-03-26T15:49:36.134Z,100341.78
2023-03-26T15:52:16.088Z,100342.25
2023-03-26T15:54:53.596Z,100359.41
2023-03-26T15:57:30.666Z,100358.44
2023-03-26T16:00:22.832Z,100376.13
2023-03-26T16:03:16.455Z,100349.13
2023-03-26T16:06:10.537Z,100394.00
2023-03-26T16:08:47.163Z,100385.84
2023-03-26T16:11:35.991Z,100402.13
2023-03-26T16:14:17.441Z,100408.44
2023-03-26T16:16:58.656Z,100414.91
2023-03-26T16:19:41.195Z,100424.63
2023-03-26T16:22:15.489Z,100418.25
2023-03-26T16:24:49.348Z,100430.00
2023-03-26T16:27:34.261Z,100446.28
2023-03-26T16:30:14.753Z,100444.84
2023-03-26T16:32:44.419Z,100460.63
2023-03-26T16:35:39.133Z,100459.78
2023-03-26T16:38:12.914Z,100470.91
2023-03-26T16:41:00.133Z,100488.13
2023-03-26T16:43:50.423Z,100478.34
2023-03-26T16:46:28.694Z,100489.84
2023-03-26T16:49:03.365Z,100495.00
2023-03-26T16:51:49.967Z,100495.22
2023-03-26T16:54:24.688Z,100502.94
2023-03-26T16:57:00.029Z,100512.47
2023-03-26T17:00:06.783Z,100528.44
2023-03-26T17:02:43.555Z,100543.03
2023-03-26T17:05:21.755Z,100542.97
2023-03-26T17:07:58.344Z,100524.91
2023-03-26T17:10:32.010Z,100545.91
2023-03-26T17:13:06.469Z,100545.97
2023-03-26T17:15:48.412Z,100557.22
2023-03-26T17:18:45.723Z,100562.56
2023-03-26T17:21:17.963Z,100576.41
2023-03-26T17:24:01.892Z,100581.28
2023-03-26T17:26:38.659Z,100571.63
2023-03-26T17:29:51.693Z,100601.31
2023-03-26T17:33:55.766Z,100592.97
2023-03-26T17:36:50.390Z,100630.84
2023-03-26T17:39:47.887Z,100629.06
2023-03-26T17:42:19.182Z,100634.78
2023-03-26T17:53:45.182Z,100655.34
2023-03-26T18:16:56.390Z,100723.97
2023-03-26T18:20:06.084Z,100726.59
2023-03-26T18:22:34.184Z,100740.84
2023-03-26T18:25:02.668Z,100752.75
2023-03-26T19:00:07.285Z,100802.53
2023-03-26T19:03:04.954Z,100808.09
2023-03-26T19:05:33.720Z,100820.72
2023-03-26T19:08:06.451Z,100806.19
2023-03-26T19:10:36.855Z,100823.56
2023-03-26T19:13:04.423Z,100827.31
2023-03-26T19:15:34.636Z,100824.19
2023-03-26T19:18:11.748Z,100832.88
2023-03-26T19:20:42.617Z,100838.94
2023-03-26T19:23:14.898Z,100837.16
2023-03-26T19:25:46.142Z,100851.53
2023-03-26T19:28:18.010Z,100855.19
2023-03-26T19:30:45.079Z,100863.38
2023-03-26T19:33:18.442Z,100863.88
2023-03-26T19:35:50.888Z,100870.91
2023-03-26T19:38:24.786Z,100872.56
2023-03-26T19:40:52.622Z,100879.25
2023-03-26T19:43:20.091Z,100898.47
2023-03-26T19:46:00.416Z,100891.72
2023-03-26T19:48:45.580Z,100903.69
2023-03-26T19:51:20.376Z,100914.69
2023-03-26T19:53:50.179Z,100923.34
2023-03-26T19:56:19.585Z,100925.19
2023-03-26T19:58:46.867Z,100929.28
2023-03-26T20:01:17.725Z,100937.94
2023-03-26T20:03:49.246Z,100944.53
2023-03-26T20:06:18.927Z,100939.41
2023-03-26T20:08:50.645Z,100950.88
2023-03-26T20:11:21.436Z,100961.50
2023-03-26T20:13:50.109Z,100963.34
2023-03-26T20:16:23.815Z,100954.84
2023-03-26T20:18:52.298Z,100961.25
2023-03-26T20:21:19.661Z,100964.84
2023-03-26T20:23:47.275Z,100982.56
2023-03-26T20:26:15.816Z,100979.09
2023-03-26T20:28:48.263Z,100983.22
2023-03-26T20:31:23.411Z,100985.34
2023-03-26T20:33:53.168Z,100992.88
2023-03-26T20:36:33.819Z,100997.47
2023-03-26T20:39:06.022Z,100996.31
2023-03-26T20:41:34.714Z,101005.59
2023-03-26T20:44:05.067Z,101021.19
2023-03-26T20:46:33.363Z,101024.09
2023-03-26T20:49:02.004Z,101027.22
2023-03-26T20:51:30.645Z,101032.19
2023-03-26T20:53:58.107Z,101044.50
2023-03-26T20:56:25.365Z,101042.06
2023-03-26T20:59:09.606Z,101046.78
2023-03-26T21:01:38.385Z,101054.31
2023-03-26T21:04:11.935Z,101055.78
2023-03-26T21:06:43.870Z,101057.22
2023-03-26T21:09:14.945Z,101061.78
2023-03-26T21:11:52.789Z,101061.63
2023-03-26T21:14:24.119Z,101076.94
2023-03-26T21:16:52.071Z,101070.75
2023-03-26T21:19:21.124Z,101080.69
2023-03-26T21:21:57.710Z,101078.28
2023-03-26T21:24:35.045Z,101092.06
2023-03-26T21:27:12.801Z,101092.88
2023-03-26T21:29:41.033Z,101093.28
2023-03-26T21:32:10.643Z,101097.59
2023-03-26T21:34:47.876Z,101105.22
2023-03-26T21:37:23.494Z,101123.25
2023-03-26T21:39:51.535Z,101131.63
2023-03-26T21:42:19.272Z,101144.69
2023-03-26T21:44:47.004Z,101142.59
2023-03-26T21:47:14.999Z,101144.72
2023-03-26T21:49:43.937Z,101146.91
2023-03-26T21:52:15.132Z,101141.72
2023-03-26T21:54:43.413Z,101143.56
2023-03-26T21:57:25.928Z,101146.34
2023-03-26T22:00:07.160Z,101144.84
2023-03-26T22:02:42.358Z,101151.84
2023-03-26T22:05:15.397Z,101160.31
2023-03-26T22:07:52.832Z,101171.13
2023-03-26T22:10:20.044Z,101161.06
2023-03-26T22:12:46.982Z,101158.50
2023-03-26T22:15:14.233Z,101166.31
2023-03-26T22:17:41.869Z,101175.75
2023-03-26T22:20:12.772Z,101182.28
2023-03-26T22:22:41.633Z,101180.59
2023-03-26T22:25:10.523Z,101181.16
2023-03-26T22:27:44.931Z,101195.09
2023-03-26T22:30:13.879Z,101193.31
2023-03-26T22:32:41.532Z,101200.72
2023-03-26T22:35:09.178Z,101201.22
2023-03-26T22:37:37.941Z,101203.81
2023-03-26T22:40:08.446Z,101215.38
2023-03-26T22:42:35.859Z,101213.38
2023-03-26T22:45:03.015Z,101230.72
2023-03-26T22:47:30.745Z,101236.72
2023-03-26T22:49:57.829Z,101243.91
2023-03-26T22:52:24.841Z,101245.53
2023-03-26T22:54:53.350Z,101265.25
2023-03-26T22:57:22.036Z,101265.31
2023-03-26T22:59:49.113Z,101265.44
2023-03-26T23:02:16.735Z,101268.97
2023-03-26T23:04:44.302Z,101262.25
2023-03-26T23:07:11.499Z,101271.47
2023-03-26T23:09:38.543Z,101276.41
2023-03-26T23:12:07.834Z,101276.88
2023-03-26T23:14:34.851Z,101280.63
2023-03-26T23:17:02.090Z,101289.81
2023-03-26T23:19:30.173Z,101295.56
2023-03-26T23:21:57.584Z,101300.97
2023-03-26T23:24:26.571Z,101302.00
2023-03-26T23:26:53.708Z,101306.13
2023-03-26T23:29:22.075Z,101316.13
2023-03-26T23:31:49.343Z,101314.16
2023-03-26T23:34:17.214Z,101306.41
2023-03-26T23:36:44.876Z,101309.38
2023-03-26T23:39:11.951Z,101316.81
2023-03-26T23:41:38.929Z,101313.72
2023-03-26T23:44:06.061Z,101317.75
2023-03-26T23:46:34.814Z,101325.47
2023-03-26T23:49:03.621Z,101329.16
2023-03-26T23:51:31.111Z,101339.09
2023-03-26T23:53:59.716Z,101335.91
2023-03-26T23:56:30.293Z,101341.13
2023-03-26T23:58:58.312Z,101345.78
